Terminal Aerodrome Forecast
Issued by NWS

Home | Current Version | Previous Version | Text Only | Print | Product List | Glossary On
Versions: 1 2 3 4 5 6 7 8 9 10 11 12
109
FTUS43 KMQT 300525
TAFSAW
TAF
KSAW 300525Z 3006/3106 12004KT P6SM OVC100
     FM301900 11008KT P6SM BKN045
     FM302300 08008KT P6SM OVC030=

USA.gov is the U.S. government's official web portal to all federal, state and local government web resources and services.